Time;durP1;ratioP1;P1;durP2;ratioP2;P2;SDS_P1;SDS_P2;PMS_P1;PMS_P2;Temp;Humidity;BMP_temperature;BMP_pressure;BME280_temperature;BME280_humidity;BME280_pressure;Samples;Min_cycle;Max_cycle;Signal;HPM_P1;HPM_P2
2022/03/29 00:01:03;;;;;;;11.97;9.93;;;11.10;61.90;;;;;;5014684;28;20171;-61
2022/03/29 00:03:29;;;;;;;13.60;10.20;;;10.80;64.50;;;;;;5013934;28;20602;-56
2022/03/29 00:05:55;;;;;;;12.93;9.90;;;10.80;62.70;;;;;;5014781;28;20193;-59
2022/03/29 00:08:20;;;;;;;12.80;9.43;;;10.70;63.20;;;;;;5014478;28;20208;-59
2022/03/29 00:10:46;;;;;;;12.80;9.70;;;10.70;63.30;;;;;;5014615;28;20271;-59
2022/03/29 00:13:11;;;;;;;11.67;9.33;;;10.70;63.40;;;;;;5014313;28;20180;-57
2022/03/29 00:15:37;;;;;;;11.10;9.50;;;10.60;63.70;;;;;;5014378;28;20729;-59
2022/03/29 00:18:03;;;;;;;13.23;9.70;;;10.60;63.80;;;;;;5014224;28;20242;-58
2022/03/29 00:20:29;;;;;;;13.27;9.83;;;10.60;64.00;;;;;;5014505;28;20168;-55
2022/03/29 00:22:55;;;;;;;14.63;9.67;;;10.60;64.20;;;;;;5013970;28;20535;-57
2022/03/29 00:25:20;;;;;;;13.80;9.73;;;10.50;64.30;;;;;;5014334;28;20287;-58
2022/03/29 00:27:46;;;;;;;14.47;10.50;;;10.50;64.80;;;;;;5014408;28;20180;-58
2022/03/29 00:30:12;;;;;;;12.80;10.30;;;10.50;65.00;;;;;;5014137;28;20172;-56
2022/03/29 00:32:41;;;;;;;12.73;10.40;;;10.40;65.10;;;;;;5013955;28;20272;-55
2022/03/29 00:35:09;;;;;;;15.07;10.50;;;10.40;65.00;;;;;;5014118;28;20192;-58
2022/03/29 00:37:35;;;;;;;14.33;10.47;;;10.40;65.20;;;;;;5014179;28;20200;-57
2022/03/29 00:40:02;;;;;;;14.03;11.23;;;10.40;65.50;;;;;;5013887;28;20172;-56
2022/03/29 00:42:27;;;;;;;15.20;11.33;;;10.20;65.70;;;;;;5013781;28;20192;-55
2022/03/29 00:44:55;;;;;;;15.23;10.53;;;10.20;66.30;;;;;;5013890;28;20188;-58
2022/03/29 00:47:21;;;;;;;18.33;10.90;;;10.20;66.40;;;;;;5013841;28;20208;-58
2022/03/29 00:49:47;;;;;;;13.57;10.40;;;10.30;66.80;;;;;;5013828;28;20219;-59
2022/03/29 00:52:13;;;;;;;14.03;10.30;;;10.30;66.80;;;;;;5013765;28;20635;-58
2022/03/29 00:54:43;;;;;;;13.67;11.00;;;10.30;66.80;;;;;;5013727;28;20204;-62
2022/03/29 00:57:09;;;;;;;15.50;10.83;;;10.20;66.80;;;;;;5013778;28;20250;-59
2022/03/29 00:59:35;;;;;;;15.20;10.77;;;10.30;67.00;;;;;;5013571;28;20582;-61
2022/03/29 01:02:01;;;;;;;13.87;10.83;;;10.20;67.00;;;;;;5013641;28;20303;-59
2022/03/29 01:04:29;;;;;;;12.77;10.37;;;10.20;67.50;;;;;;5057653;23;20231;-53
2022/03/29 01:06:59;;;;;;;13.87;10.37;;;10.20;67.60;;;;;;5045931;28;20338;-56
2022/03/29 01:09:26;;;;;;;13.83;10.33;;;10.10;67.70;;;;;;5042704;28;20175;-51
2022/03/29 01:11:52;;;;;;;12.20;9.53;;;10.10;67.70;;;;;;5051200;28;20175;-54
2022/03/29 01:14:23;;;;;;;11.97;10.30;;;10.10;67.80;;;;;;5045708;28;20199;-55
2022/03/29 01:19:36;;;;;;;16.23;10.87;;;10.00;68.20;;;;;;5053203;28;20670;-52
2022/03/29 01:22:05;;;;;;;12.80;9.97;;;9.90;69.60;;;;;;5050846;28;20640;-54
2022/03/29 01:24:32;;;;;;;12.17;10.37;;;9.90;69.70;;;;;;5048087;28;20584;-51
2022/03/29 01:27:00;;;;;;;13.10;10.23;;;9.90;70.00;;;;;;5052841;28;20234;-53
2022/03/29 01:29:28;;;;;;;13.60;10.30;;;9.80;69.80;;;;;;5052848;28;20203;-50
2022/03/29 01:31:54;;;;;;;12.60;9.50;;;9.80;70.10;;;;;;5052542;28;20175;-51
2022/03/29 01:34:20;;;;;;;14.23;10.13;;;9.70;70.00;;;;;;5052351;28;20234;-52
2022/03/29 01:36:46;;;;;;;12.17;9.87;;;9.70;70.50;;;;;;5052466;28;20563;-56
2022/03/29 01:39:12;;;;;;;11.60;9.50;;;9.60;70.50;;;;;;5049443;28;20198;-56
2022/03/29 01:41:40;;;;;;;15.20;10.07;;;9.60;71.10;;;;;;5048854;28;20198;-52
2022/03/29 01:44:07;;;;;;;12.63;9.27;;;9.50;71.00;;;;;;5052071;28;20191;-54
2022/03/29 01:46:33;;;;;;;14.63;10.73;;;9.50;71.30;;;;;;5052591;28;20171;-56
2022/03/29 01:49:00;;;;;;;11.50;9.63;;;9.40;71.70;;;;;;5052246;28;20186;-56
2022/03/29 01:51:26;;;;;;;12.33;10.07;;;9.40;71.80;;;;;;5052402;28;20179;-55
2022/03/29 01:54:00;;;;;;;11.63;9.20;;;9.40;71.80;;;;;;5051895;28;20199;-56
2022/03/29 01:56:31;;;;;;;12.87;9.37;;;9.50;71.90;;;;;;5052454;28;20175;-55
2022/03/29 01:58:57;;;;;;;13.37;9.87;;;9.40;71.50;;;;;;5052193;28;20174;-55
2022/03/29 02:01:22;;;;;;;11.17;9.40;;;9.40;71.90;;;;;;5052238;28;20178;-56
2022/03/29 02:03:48;;;;;;;15.50;10.10;;;9.50;74.30;;;;;;5051820;28;20541;-55
2022/03/29 02:06:14;;;;;;;11.50;9.00;;;9.30;73.10;;;;;;5052216;28;20257;-56
2022/03/29 02:08:40;;;;;;;13.50;9.67;;;9.30;72.60;;;;;;5051870;28;20171;-56
2022/03/29 02:11:07;;;;;;;13.53;9.33;;;9.30;72.50;;;;;;5052115;28;20170;-55
2022/03/29 02:13:33;;;;;;;10.97;8.90;;;9.30;72.70;;;;;;5045638;28;20518;-54
2022/03/29 02:15:59;;;;;;;11.70;8.90;;;9.30;72.90;;;;;;5051169;28;20199;-56
2022/03/29 02:18:24;;;;;;;11.43;9.40;;;9.30;73.10;;;;;;5051839;28;20353;-52
2022/03/29 02:20:50;;;;;;;12.93;9.27;;;9.20;73.00;;;;;;5051873;28;20199;-54
2022/03/29 02:23:15;;;;;;;11.50;9.10;;;9.20;73.20;;;;;;5051535;28;20175;-55
2022/03/29 02:25:42;;;;;;;14.37;9.33;;;9.20;73.50;;;;;;5051765;28;20179;-55
2022/03/29 02:28:08;;;;;;;13.23;9.40;;;9.20;73.60;;;;;;5051643;28;20189;-54
2022/03/29 02:30:35;;;;;;;11.53;8.40;;;9.20;73.80;;;;;;5051711;28;20171;-54
2022/03/29 02:33:02;;;;;;;12.50;8.93;;;9.20;73.90;;;;;;5051512;28;20168;-55
2022/03/29 02:35:27;;;;;;;12.70;9.40;;;9.10;74.20;;;;;;5051628;28;20190;-54
2022/03/29 02:37:53;;;;;;;13.90;9.10;;;9.00;74.10;;;;;;5051692;28;20721;-54
2022/03/29 02:40:18;;;;;;;11.60;8.77;;;9.00;74.50;;;;;;5051520;28;20167;-55
2022/03/29 02:42:51;;;;;;;14.27;9.20;;;8.90;74.70;;;;;;5051640;28;20167;-56
2022/03/29 02:45:19;;;;;;;12.87;9.33;;;8.90;75.10;;;;;;5051620;28;20197;-54
2022/03/29 02:47:46;;;;;;;12.10;9.03;;;8.90;75.20;;;;;;5051632;28;20224;-52
2022/03/29 02:50:13;;;;;;;13.23;8.63;;;8.90;75.40;;;;;;5051416;28;20179;-48
2022/03/29 02:52:43;;;;;;;12.33;8.97;;;8.90;75.40;;;;;;5051248;28;20175;-52
2022/03/29 02:55:09;;;;;;;12.20;9.27;;;8.90;75.80;;;;;;5051468;28;20675;-50
2022/03/29 02:57:35;;;;;;;15.93;9.83;;;8.80;76.00;;;;;;5051362;28;20282;-53
2022/03/29 03:00:01;;;;;;;11.37;8.87;;;8.80;76.00;;;;;;5051528;28;20163;-49
2022/03/29 03:02:26;;;;;;;11.03;8.90;;;8.70;76.50;;;;;;5051061;28;20183;-49
2022/03/29 03:04:52;;;;;;;11.70;9.83;;;8.70;76.80;;;;;;5051331;28;20206;-53
2022/03/29 03:07:17;;;;;;;11.17;9.17;;;8.70;77.10;;;;;;5051427;28;20537;-50
2022/03/29 03:09:43;;;;;;;13.37;9.17;;;8.60;77.00;;;;;;5051613;28;20190;-50
2022/03/29 03:12:09;;;;;;;11.80;9.03;;;8.60;77.10;;;;;;5051296;28;20175;-47
2022/03/29 03:14:35;;;;;;;13.53;9.13;;;8.60;77.00;;;;;;5051241;28;20560;-52
2022/03/29 03:17:00;;;;;;;13.67;9.27;;;8.60;77.20;;;;;;5051279;28;20226;-51
2022/03/29 03:19:26;;;;;;;12.53;9.60;;;8.60;77.60;;;;;;5051223;28;20172;-51
2022/03/29 03:21:51;;;;;;;10.90;9.33;;;8.60;77.90;;;;;;5044354;28;20230;-52
2022/03/29 03:24:17;;;;;;;12.97;9.50;;;8.60;78.10;;;;;;5050873;28;20195;-51
2022/03/29 03:26:42;;;;;;;12.73;9.40;;;8.60;78.10;;;;;;5051384;28;20251;-53
2022/03/29 03:29:08;;;;;;;12.43;8.97;;;8.60;78.30;;;;;;5051104;28;20702;-52
2022/03/29 03:31:34;;;;;;;11.87;9.37;;;8.60;78.30;;;;;;5051272;28;20205;-53
2022/03/29 03:33:59;;;;;;;10.47;8.77;;;8.40;81.40;;;;;;5050724;28;20174;-51
2022/03/29 03:36:25;;;;;;;14.17;9.70;;;8.50;79.00;;;;;;5051101;28;20179;-50
2022/03/29 03:38:50;;;;;;;13.03;9.17;;;8.50;79.10;;;;;;5051482;28;20203;-50
2022/03/29 03:41:16;;;;;;;14.90;10.27;;;8.40;79.30;;;;;;5054990;28;20202;-55
2022/03/29 03:43:41;;;;;;;11.33;8.87;;;8.50;79.50;;;;;;5054483;28;20175;-50
2022/03/29 03:46:07;;;;;;;13.70;9.60;;;8.50;79.70;;;;;;5054839;28;20191;-53
2022/03/29 03:48:33;;;;;;;11.20;8.67;;;8.50;79.90;;;;;;5054835;28;20171;-49
2022/03/29 03:50:58;;;;;;;12.00;9.43;;;8.40;79.70;;;;;;5054539;28;20183;-51
2022/03/29 03:53:24;;;;;;;12.80;9.20;;;8.50;80.60;;;;;;5054504;28;20171;-50
2022/03/29 03:55:49;;;;;;;12.50;9.10;;;8.50;79.90;;;;;;5054523;28;20680;-53
2022/03/29 03:58:16;;;;;;;10.53;8.73;;;8.50;80.00;;;;;;5054461;28;20563;-52
2022/03/29 04:00:42;;;;;;;15.10;9.10;;;8.50;80.50;;;;;;5054511;28;20166;-51
2022/03/29 04:03:09;;;;;;;11.73;9.27;;;8.40;80.50;;;;;;5054200;28;20163;-51
2022/03/29 04:05:34;;;;;;;12.47;9.43;;;8.40;80.50;;;;;;5054179;28;20228;-53
2022/03/29 04:08:00;;;;;;;11.10;9.43;;;8.40;80.70;;;;;;5054543;28;20764;-50
2022/03/29 04:10:26;;;;;;;11.93;9.47;;;8.40;80.80;;;;;;5054301;28;20167;-50
2022/03/29 04:12:52;;;;;;;13.10;9.47;;;8.40;80.80;;;;;;5054036;28;20174;-51
2022/03/29 04:15:17;;;;;;;11.13;9.00;;;8.40;81.00;;;;;;5054211;28;20266;-51
2022/03/29 04:17:43;;;;;;;13.63;9.67;;;8.40;81.20;;;;;;5053939;28;20188;-53
2022/03/29 04:20:09;;;;;;;11.93;10.10;;;8.40;81.10;;;;;;5054228;28;20175;-53
2022/03/29 04:22:34;;;;;;;12.40;9.40;;;8.40;81.50;;;;;;5035891;28;20210;-54
2022/03/29 04:25:00;;;;;;;14.90;9.53;;;8.40;81.50;;;;;;5054085;28;20211;-53
2022/03/29 04:27:26;;;;;;;12.70;9.60;;;8.40;81.50;;;;;;5053899;28;20178;-50
2022/03/29 04:29:51;;;;;;;11.23;9.67;;;8.40;81.40;;;;;;5053937;28;20175;-51
2022/03/29 04:32:17;;;;;;;14.40;10.67;;;8.40;81.60;;;;;;5053617;28;20179;-54
2022/03/29 04:34:44;;;;;;;12.30;10.13;;;8.40;81.70;;;;;;5053830;28;20194;-53
2022/03/29 04:37:10;;;;;;;14.20;10.33;;;8.30;81.80;;;;;;5053829;28;20272;-54
2022/03/29 04:39:37;;;;;;;16.40;11.93;;;8.40;82.00;;;;;;5053914;28;20213;-51
2022/03/29 04:42:02;;;;;;;15.00;11.63;;;8.30;82.10;;;;;;5053644;28;20159;-53
2022/03/29 04:44:28;;;;;;;14.30;10.67;;;8.30;82.10;;;;;;5053452;28;20191;-51
2022/03/29 04:46:53;;;;;;;16.73;11.47;;;8.30;82.60;;;;;;5053603;28;20240;-55
2022/03/29 04:49:19;;;;;;;14.57;11.93;;;8.30;82.40;;;;;;5053632;28;20260;-51
2022/03/29 04:51:45;;;;;;;15.47;11.70;;;8.30;82.60;;;;;;5053489;28;20216;-53
2022/03/29 04:54:10;;;;;;;17.43;12.60;;;8.20;82.90;;;;;;5052802;28;20183;-53
2022/03/29 04:56:36;;;;;;;15.67;11.57;;;8.20;83.50;;;;;;5053300;28;20517;-54
2022/03/29 04:59:01;;;;;;;15.83;12.23;;;8.10;84.10;;;;;;5053324;28;20174;-52
2022/03/29 05:01:27;;;;;;;16.30;12.60;;;8.10;84.30;;;;;;5053333;28;20229;-52
2022/03/29 05:03:53;;;;;;;16.27;13.43;;;7.80;87.50;;;;;;5052970;28;20171;-50
2022/03/29 05:06:19;;;;;;;18.57;13.23;;;8.00;85.30;;;;;;5052633;28;20594;-53
2022/03/29 05:08:44;;;;;;;22.27;14.50;;;7.90;85.80;;;;;;5052701;28;20224;-52
2022/03/29 05:11:10;;;;;;;17.83;13.57;;;7.80;86.80;;;;;;5052774;28;20224;-54
2022/03/29 05:13:35;;;;;;;17.93;12.70;;;7.80;87.70;;;;;;5049905;28;20262;-54
2022/03/29 05:16:01;;;;;;;18.43;13.30;;;7.80;88.50;;;;;;5045671;28;20277;-55
2022/03/29 05:18:27;;;;;;;18.30;13.33;;;7.80;88.80;;;;;;5052505;28;20606;-53
2022/03/29 05:20:52;;;;;;;17.77;13.23;;;7.90;88.90;;;;;;5052757;28;20713;-55
2022/03/29 05:23:19;;;;;;;20.93;14.67;;;8.00;88.90;;;;;;5052407;28;20701;-52
2022/03/29 05:25:45;;;;;;;18.27;13.37;;;8.10;88.80;;;;;;5052505;28;20560;-53
2022/03/29 05:28:11;;;;;;;16.03;13.37;;;8.10;89.00;;;;;;5052909;28;20239;-47
2022/03/29 05:30:36;;;;;;;17.43;12.13;;;8.20;89.40;;;;;;5047492;28;20176;-51
2022/03/29 05:33:03;;;;;;;14.73;11.37;;;8.20;89.50;;;;;;5051463;28;20811;-52
2022/03/29 05:35:30;;;;;;;15.40;12.07;;;8.30;89.60;;;;;;5051043;28;20202;-50
2022/03/29 05:37:57;;;;;;;16.43;12.23;;;8.30;89.40;;;;;;5051246;28;20668;-48
2022/03/29 05:40:24;;;;;;;17.03;12.73;;;8.40;89.30;;;;;;5046458;28;20171;-53
2022/03/29 05:42:52;;;;;;;16.10;12.47;;;8.40;89.40;;;;;;5058498;28;20241;-48
2022/03/29 05:45:18;;;;;;;16.50;13.60;;;8.40;89.30;;;;;;5072449;28;20185;-49
2022/03/29 05:50:28;;;;;;;20.47;14.70;;;8.50;89.30;;;;;;5052163;28;20182;-48
2022/03/29 05:52:55;;;;;;;17.23;14.37;;;8.50;89.20;;;;;;5051967;28;20175;-52
2022/03/29 05:55:21;;;;;;;19.43;14.07;;;8.60;89.60;;;;;;5053985;28;20199;-49
2022/03/29 05:57:49;;;;;;;21.13;15.20;;;8.60;90.00;;;;;;5048014;28;20195;-50
2022/03/29 06:00:21;;;;;;;21.40;15.50;;;8.60;90.30;;;;;;5050591;28;20477;-50
2022/03/29 06:02:46;;;;;;;19.30;15.30;;;8.70;90.30;;;;;;5044831;28;20163;-56
2022/03/29 06:05:12;;;;;;;22.47;14.67;;;8.70;90.30;;;;;;5044441;28;20210;-51
2022/03/29 06:07:37;;;;;;;19.83;14.33;;;8.80;90.50;;;;;;5044161;28;20171;-55
2022/03/29 06:10:04;;;;;;;18.73;14.63;;;8.90;90.80;;;;;;5063747;28;20179;-55
2022/03/29 06:12:30;;;;;;;17.60;14.57;;;8.90;91.10;;;;;;5051483;28;20178;-55
2022/03/29 06:14:56;;;;;;;18.73;14.47;;;9.00;91.10;;;;;;5052238;28;20199;-56
2022/03/29 06:17:22;;;;;;;17.67;13.53;;;9.10;90.80;;;;;;5051720;28;20199;-55
2022/03/29 06:19:47;;;;;;;15.00;12.47;;;9.10;90.70;;;;;;5052030;28;20195;-50
2022/03/29 06:22:13;;;;;;;18.23;11.97;;;9.30;91.00;;;;;;5048059;28;21804;-53
2022/03/29 06:24:39;;;;;;;17.10;12.03;;;9.30;91.00;;;;;;5041961;28;20198;-50
2022/03/29 06:27:04;;;;;;;16.07;11.60;;;9.40;90.40;;;;;;5047682;28;20313;-50
2022/03/29 06:29:30;;;;;;;15.83;12.43;;;9.50;90.20;;;;;;5046145;28;20529;-55
2022/03/29 06:31:56;;;;;;;15.53;13.20;;;9.60;89.70;;;;;;5051486;28;20186;-51
2022/03/29 06:34:22;;;;;;;21.77;15.13;;;9.60;89.10;;;;;;5050948;28;20202;-49
2022/03/29 06:36:47;;;;;;;18.40;14.63;;;9.60;88.70;;;;;;5051812;28;20254;-48
2022/03/29 06:39:13;;;;;;;19.73;14.00;;;9.70;88.30;;;;;;5051675;28;20175;-51
2022/03/29 06:41:40;;;;;;;21.87;14.00;;;9.70;87.70;;;;;;5051434;28;20175;-55
2022/03/29 06:44:07;;;;;;;19.07;14.17;;;9.80;87.30;;;;;;5051456;28;20281;-48
2022/03/29 06:46:34;;;;;;;16.03;13.03;;;9.80;87.30;;;;;;5051679;28;20552;-53
2022/03/29 06:49:02;;;;;;;15.73;13.10;;;9.80;87.60;;;;;;5051762;28;20171;-50
2022/03/29 06:51:31;;;;;;;16.10;11.43;;;9.90;86.50;;;;;;5051472;28;20168;-50
2022/03/29 06:53:57;;;;;;;13.97;11.93;;;9.90;86.10;;;;;;5051153;28;20229;-53
2022/03/29 06:56:23;;;;;;;14.73;12.60;;;10.00;85.00;;;;;;5051728;28;20179;-54
2022/03/29 06:58:49;;;;;;;16.23;12.37;;;10.10;84.50;;;;;;5051391;28;20207;-49
2022/03/29 07:01:16;;;;;;;15.10;12.60;;;10.10;84.40;;;;;;5051642;28;20258;-51
2022/03/29 07:03:41;;;;;;;13.87;11.70;;;10.20;84.20;;;;;;5051024;28;20532;-51
2022/03/29 07:06:08;;;;;;;15.43;11.93;;;10.30;83.20;;;;;;5051422;28;20214;-52
2022/03/29 07:08:33;;;;;;;16.33;11.47;;;10.30;82.80;;;;;;5051196;28;20171;-51
2022/03/29 07:11:19;;;;;;;17.60;12.23;;;10.30;82.50;;;;;;5051507;28;20179;-53
2022/03/29 07:13:45;;;;;;;13.17;11.30;;;10.40;82.20;;;;;;5051251;28;20175;-53
2022/03/29 07:16:14;;;;;;;14.53;11.80;;;10.70;82.60;;;;;;5055322;28;20195;-53
2022/03/29 07:18:40;;;;;;;16.10;12.87;;;10.50;81.90;;;;;;5055396;28;20199;-49
2022/03/29 07:21:06;;;;;;;14.90;11.70;;;10.60;82.60;;;;;;5055113;28;20552;-49
2022/03/29 07:23:31;;;;;;;13.77;10.80;;;10.60;82.10;;;;;;5055007;28;20171;-49
2022/03/29 07:25:57;;;;;;;13.90;11.90;;;10.80;82.30;;;;;;5054958;28;20199;-53
2022/03/29 07:28:23;;;;;;;16.30;13.57;;;10.90;82.20;;;;;;5055400;28;20179;-52
2022/03/29 07:30:49;;;;;;;18.57;14.37;;;11.20;81.80;;;;;;5054897;28;20175;-49
2022/03/29 07:33:17;;;;;;;17.73;13.83;;;11.40;81.70;;;;;;5054860;28;20187;-53
2022/03/29 07:35:44;;;;;;;19.53;14.70;;;11.50;80.40;;;;;;5100428;23;20223;-60
2022/03/29 07:38:10;;;;;;;20.13;15.53;;;11.70;80.10;;;;;;5030226;28;20212;-63
2022/03/29 07:40:37;;;;;;;18.10;15.00;;;11.80;78.30;;;;;;5035040;28;20222;-59
2022/03/29 07:43:04;;;;;;;18.87;15.20;;;11.80;78.10;;;;;;5015510;28;20179;-60
2022/03/29 07:45:30;;;;;;;17.73;15.03;;;11.80;77.90;;;;;;5033583;28;20219;-61
2022/03/29 07:47:57;;;;;;;17.97;15.23;;;12.00;77.80;;;;;;5034612;28;20176;-59
2022/03/29 07:50:24;;;;;;;18.83;14.83;;;12.30;77.70;;;;;;5034553;28;20268;-61
2022/03/29 07:52:50;;;;;;;17.27;14.63;;;12.20;78.20;;;;;;5030303;28;20176;-60
2022/03/29 07:55:16;;;;;;;17.73;13.33;;;12.70;79.10;;;;;;5014065;28;20168;-58
2022/03/29 07:57:43;;;;;;;18.90;11.93;;;12.70;80.00;;;;;;5014854;28;20196;-58
2022/03/29 08:02:56;;;;;;;14.57;12.87;;;12.60;86.20;;;;;;5014862;28;20179;-60
2022/03/29 08:05:22;;;;;;;15.57;12.77;;;12.60;83.50;;;;;;5014675;28;20200;-59
2022/03/29 08:07:48;;;;;;;16.03;13.50;;;12.80;82.50;;;;;;5014460;28;20211;-60
2022/03/29 08:10:14;;;;;;;18.67;13.90;;;13.00;78.40;;;;;;5014537;28;20550;-58
2022/03/29 08:12:40;;;;;;;16.83;13.67;;;13.30;76.10;;;;;;5013759;28;20177;-59
2022/03/29 08:15:07;;;;;;;18.67;13.50;;;13.30;73.40;;;;;;5014470;28;20176;-61
2022/03/29 08:17:33;;;;;;;16.30;13.93;;;13.50;74.00;;;;;;5014210;28;20199;-56
2022/03/29 08:19:59;;;;;;;19.63;15.03;;;13.50;73.90;;;;;;5014526;28;20632;-59
2022/03/29 08:22:25;;;;;;;19.30;13.73;;;13.70;74.30;;;;;;5014322;28;20173;-60
2022/03/29 08:24:50;;;;;;;17.70;14.27;;;13.90;73.00;;;;;;5012975;28;20254;-57
2022/03/29 08:27:16;;;;;;;18.20;14.30;;;14.10;73.60;;;;;;5014114;28;20663;-58
2022/03/29 08:29:42;;;;;;;16.87;14.43;;;14.70;72.60;;;;;;5014249;28;20638;-59
2022/03/29 08:32:07;;;;;;;18.17;14.07;;;14.60;71.40;;;;;;5014208;28;20179;-60
2022/03/29 08:34:33;;;;;;;17.33;13.40;;;14.90;69.80;;;;;;5013939;28;20545;-58
2022/03/29 08:36:59;;;;;;;16.10;13.10;;;15.00;69.10;;;;;;5014307;28;20223;-56
2022/03/29 08:39:25;;;;;;;16.67;13.53;;;15.60;69.80;;;;;;5014352;28;20181;-58
2022/03/29 08:41:58;;;;;;;17.57;13.20;;;15.40;68.00;;;;;;4996490;28;20173;-56
2022/03/29 08:44:26;;;;;;;17.47;13.43;;;15.60;63.90;;;;;;5013472;28;20586;-59
2022/03/29 08:46:52;;;;;;;16.43;12.90;;;16.80;65.00;;;;;;4996335;28;20188;-61
2022/03/29 08:49:19;;;;;;;16.50;14.75;;;15.70;63.60;;;;;;5012935;28;20445;-59
2022/03/29 08:51:45;;;;;;;15.37;13.47;;;16.00;64.30;;;;;;5013734;28;20173;-58
2022/03/29 08:54:11;;;;;;;16.73;13.40;;;16.20;68.60;;;;;;5013703;28;20176;-58
2022/03/29 08:56:39;;;;;;;14.63;13.13;;;15.80;69.40;;;;;;5013751;28;20601;-59
2022/03/29 08:59:05;;;;;;;15.77;13.60;;;15.90;69.30;;;;;;5013384;28;20161;-59
2022/03/29 09:01:30;;;;;;;15.77;12.63;;;16.40;69.30;;;;;;5013729;28;20173;-58
2022/03/29 09:04:12;;;;;;;16.10;13.20;;;16.30;70.50;;;;;;5013331;28;20253;-58
2022/03/29 09:06:56;;;;;;;18.50;12.73;;;16.20;66.90;;;;;;5013685;28;20215;-57
2022/03/29 09:09:34;;;;;;;14.67;12.37;;;16.80;63.80;;;;;;5013448;28;20165;-59
2022/03/29 09:12:21;;;;;;;15.70;12.30;;;16.60;62.50;;;;;;5013510;28;20247;-59
2022/03/29 09:15:02;;;;;;;17.63;12.87;;;17.00;62.60;;;;;;5013412;28;20581;-58
2022/03/29 09:17:46;;;;;;;15.10;12.07;;;17.00;60.60;;;;;;5013139;28;20208;-56
2022/03/29 09:20:23;;;;;;;14.40;12.33;;;17.10;61.90;;;;;;5013480;28;20164;-58
2022/03/29 09:22:53;;;;;;;14.03;12.43;;;17.10;60.80;;;;;;5013195;28;20183;-59
2022/03/29 09:25:20;;;;;;;15.00;12.87;;;16.90;60.70;;;;;;5013373;28;20165;-63
2022/03/29 09:27:56;;;;;;;15.77;12.53;;;16.70;60.80;;;;;;5013525;28;20173;-60
2022/03/29 09:30:24;;;;;;;18.23;12.07;;;16.70;61.40;;;;;;5013407;28;20179;-59
2022/03/29 09:32:53;;;;;;;15.27;12.40;;;16.60;61.90;;;;;;5012597;28;20210;-60
2022/03/29 09:35:19;;;;;;;16.73;12.17;;;17.00;64.90;;;;;;5012488;28;20204;-61
2022/03/29 09:37:45;;;;;;;15.00;12.93;;;17.00;62.00;;;;;;5011600;28;20704;-58
2022/03/29 09:40:12;;;;;;;16.37;12.33;;;17.00;63.00;;;;;;5012553;28;20161;-56
2022/03/29 09:42:41;;;;;;;16.73;13.13;;;17.20;60.80;;;;;;5012190;28;20178;-58
2022/03/29 09:45:08;;;;;;;15.23;12.43;;;17.60;59.90;;;;;;5012536;28;20166;-60
2022/03/29 09:47:35;;;;;;;16.17;11.90;;;17.60;57.10;;;;;;5012238;28;20184;-58
2022/03/29 09:50:09;;;;;;;14.90;12.50;;;17.50;60.90;;;;;;5012374;28;20177;-57
2022/03/29 09:52:37;;;;;;;15.80;12.53;;;17.80;61.30;;;;;;5012521;28;20179;-56
2022/03/29 09:55:13;;;;;;;15.07;12.07;;;18.20;61.70;;;;;;5012168;28;20585;-57
2022/03/29 09:57:42;;;;;;;15.93;12.70;;;17.90;56.90;;;;;;5009414;28;20200;-62
2022/03/29 10:00:11;;;;;;;15.40;12.90;;;18.10;58.50;;;;;;5005940;28;20177;-59
2022/03/29 10:02:40;;;;;;;15.40;12.60;;;18.10;56.60;;;;;;5012359;28;20176;-59
2022/03/29 10:05:07;;;;;;;15.87;13.40;;;18.10;57.00;;;;;;5012312;28;20185;-57
2022/03/29 10:07:43;;;;;;;15.17;12.60;;;18.40;55.60;;;;;;5012071;28;20695;-55
2022/03/29 10:10:09;;;;;;;14.77;12.67;;;18.70;56.90;;;;;;5011722;28;20187;-60
2022/03/29 10:12:35;;;;;;;16.53;13.63;;;19.00;54.40;;;;;;5008680;28;20173;-59
2022/03/29 10:15:01;;;;;;;15.93;13.23;;;19.10;52.90;;;;;;5011917;28;20523;-61
2022/03/29 10:17:28;;;;;;;18.20;13.53;;;19.40;52.40;;;;;;4997754;28;20205;-59
2022/03/29 10:19:55;;;;;;;15.80;12.73;;;19.50;51.60;;;;;;4992276;28;20169;-56
2022/03/29 10:22:21;;;;;;;14.47;12.73;;;19.60;51.20;;;;;;4992461;28;20173;-60
2022/03/29 10:24:46;;;;;;;16.13;14.03;;;19.90;52.70;;;;;;4992395;28;20176;-59
2022/03/29 10:27:12;;;;;;;22.07;13.77;;;20.00;51.10;;;;;;4992668;28;20610;-56
2022/03/29 10:29:40;;;;;;;15.60;14.00;;;20.00;50.90;;;;;;4992209;28;20669;-60
2022/03/29 10:32:06;;;;;;;17.17;15.10;;;20.10;49.90;;;;;;4992608;28;20264;-63
2022/03/29 10:34:45;;;;;;;17.20;13.33;;;20.40;49.70;;;;;;4994762;28;20180;-56
2022/03/29 10:37:16;;;;;;;16.80;13.85;;;20.80;50.20;;;;;;5011006;28;20206;-60
2022/03/29 10:39:57;;;;;;;16.60;14.77;;;21.30;49.00;;;;;;5011803;28;20169;-58
2022/03/29 10:42:33;;;;;;;16.00;13.18;;;21.30;47.10;;;;;;5011355;28;20202;-59
2022/03/29 10:45:23;;;;;;;14.73;12.85;;;21.40;48.60;;;;;;5012191;28;20176;-54
2022/03/29 10:47:58;;;;;;;15.88;13.70;;;22.10;47.90;;;;;;5011545;28;20195;-59
2022/03/29 10:50:47;;;;;;;15.57;13.98;;;22.70;45.10;;;;;;5011774;28;20168;-61
2022/03/29 10:53:27;;;;;;;15.43;13.80;;;23.20;43.90;;;;;;5011059;28;20179;-60
2022/03/29 10:56:11;;;;;;;14.88;13.38;;;24.20;42.80;;;;;;5011904;28;20271;-60
2022/03/29 10:58:56;;;;;;;17.88;12.65;;;25.50;41.80;;;;;;5011844;28;20200;-64
2022/03/29 11:01:22;;;;;;;15.95;12.98;;;26.50;39.30;;;;;;5010975;28;20598;-60
2022/03/29 11:04:13;;;;;;;14.75;13.25;;;27.70;38.70;;;;;;5011554;28;20252;-60
2022/03/29 11:07:04;;;;;;;18.27;13.20;;;28.90;36.00;;;;;;5011406;28;20192;-57
2022/03/29 11:09:30;;;;;;;21.90;13.80;;;31.10;33.70;;;;;;5011521;28;20701;-64
2022/03/29 11:11:56;;;;;;;15.70;13.13;;;32.30;31.50;;;;;;5018914;28;20260;-62
2022/03/29 11:14:27;;;;;;;14.55;12.77;;;33.40;30.30;;;;;;5031208;28;20222;-63
2022/03/29 11:17:13;;;;;;;12.77;11.40;;;34.40;31.00;;;;;;5031038;28;20188;-56
2022/03/29 11:19:49;;;;;;;16.38;12.43;;;35.10;30.40;;;;;;5030776;28;20172;-62
2022/03/29 11:22:39;;;;;;;14.45;12.93;;;36.20;29.30;;;;;;5031008;28;20688;-59
2022/03/29 11:25:09;;;;;;;14.43;12.32;;;35.80;28.30;;;;;;4992177;28;20178;-57
2022/03/29 11:27:36;;;;;;;14.68;13.18;;;35.30;29.50;;;;;;4992035;28;20169;-60
2022/03/29 11:30:04;;;;;;;15.27;13.18;;;35.20;28.90;;;;;;4991822;28;20726;-59
2022/03/29 11:32:31;;;;;;;17.42;12.80;;;34.70;28.60;;;;;;4991660;28;20256;-58
2022/03/29 11:34:58;;;;;;;14.43;13.02;;;33.70;29.20;;;;;;4990981;28;20205;-61
2022/03/29 11:37:43;;;;;;;15.90;14.30;;;33.10;28.80;;;;;;4991634;28;20221;-60
2022/03/29 11:40:14;;;;;;;14.57;13.07;;;32.60;30.00;;;;;;4991634;28;20197;-60
2022/03/29 11:42:52;;;;;;;15.48;13.50;;;33.20;31.00;;;;;;4991745;28;20173;-61
2022/03/29 11:45:19;;;;;;;15.32;13.77;;;33.60;29.10;;;;;;4991591;28;20169;-58
2022/03/29 11:47:55;;;;;;;15.35;13.02;;;34.40;28.70;;;;;;4990380;28;20272;-62
2022/03/29 11:50:43;;;;;;;14.48;12.48;;;35.30;29.30;;;;;;4991877;28;20646;-60
2022/03/29 11:53:19;;;;;;;14.85;13.27;;;35.90;27.40;;;;;;4998701;28;20183;-62
2022/03/29 11:56:00;;;;;;;15.13;13.63;;;35.80;27.70;;;;;;5010911;28;20203;-60
2022/03/29 11:58:32;;;;;;;15.98;14.48;;;35.30;28.10;;;;;;5010980;28;20258;-60
2022/03/29 12:01:12;;;;;;;15.80;14.27;;;34.00;27.50;;;;;;5013275;28;20733;-63
2022/03/29 12:03:40;;;;;;;15.88;14.38;;;32.60;28.60;;;;;;4996553;28;20271;-63
2022/03/29 12:06:19;;;;;;;15.57;14.05;;;31.50;31.40;;;;;;5014571;28;20562;-62
2022/03/29 12:08:54;;;;;;;16.27;14.52;;;31.40;31.20;;;;;;5013886;28;20240;-62
2022/03/29 12:11:26;;;;;;;14.95;13.55;;;30.00;31.90;;;;;;5014221;28;20542;-63
2022/03/29 12:14:13;;;;;;;20.73;14.68;;;29.30;31.30;;;;;;5013339;28;20180;-63
2022/03/29 12:16:46;;;;;;;15.80;14.20;;;29.20;34.20;;;;;;5014277;28;20246;-63
2022/03/29 12:19:13;;;;;;;16.33;14.60;;;29.30;33.20;;;;;;5014603;28;20658;-61
2022/03/29 12:21:42;;;;;;;16.88;14.32;;;29.00;34.00;;;;;;5014058;28;20172;-62
2022/03/29 12:24:12;;;;;;;15.75;13.90;;;29.40;34.40;;;;;;4996715;28;20180;-63
2022/03/29 12:26:42;;;;;;;15.95;14.32;;;30.10;32.20;;;;;;5014204;28;20196;-64
2022/03/29 12:29:16;;;;;;;16.50;14.88;;;30.20;30.60;;;;;;5014255;28;20188;-64
2022/03/29 12:31:42;;;;;;;16.85;15.05;;;29.50;31.70;;;;;;5013961;28;20174;-64
2022/03/29 12:34:08;;;;;;;16.48;14.85;;;29.00;31.50;;;;;;5013775;28;20165;-65
2022/03/29 12:36:39;;;;;;;18.33;14.15;;;28.60;32.00;;;;;;5014047;28;20685;-63
2022/03/29 12:39:07;;;;;;;16.45;14.65;;;28.60;31.80;;;;;;5013972;28;20574;-65
2022/03/29 12:41:34;;;;;;;19.17;14.98;;;28.30;32.40;;;;;;5013956;28;20172;-63
2022/03/29 12:44:01;;;;;;;18.15;14.98;;;27.90;33.00;;;;;;5013339;28;20177;-61
2022/03/29 12:46:28;;;;;;;16.95;15.15;;;27.10;40.40;;;;;;5013725;28;20189;-64